Time;durP1;ratioP1;P1;durP2;ratioP2;P2;SDS_P1;SDS_P2;PMS_P1;PMS_P2;Temp;Humidity;BMP_temperature;BMP_pressure;BME280_temperature;BME280_humidity;BME280_pressure;Samples;Min_cycle;Max_cycle;Signal;HPM_P1;HPM_P2
2021/12/25 00:01:40;;;;;;;22.75;12.10;;;;;;;;;;5005452;28;20061;-71
2021/12/25 00:04:07;;;;;;;21.35;11.35;;;;;;;;;;5011501;28;20030;-71
2021/12/25 00:06:33;;;;;;;20.83;11.02;;;;;;;;;;5011142;28;20026;-71
2021/12/25 00:08:59;;;;;;;18.33;10.48;;;;;;;;;;5010387;28;20534;-71
2021/12/25 00:11:24;;;;;;;17.15;9.18;;;;;;;;;;4994639;28;20038;-72
2021/12/25 00:13:49;;;;;;;18.08;9.57;;;;;;;;;;4990748;28;20291;-71
2021/12/25 00:16:15;;;;;;;16.92;10.20;;;;;;;;;;4991596;28;20030;-72
2021/12/25 00:18:40;;;;;;;15.80;9.32;;;;;;;;;;4991972;28;20026;-72
2021/12/25 00:21:07;;;;;;;16.00;9.52;;;;;;;;;;4992276;28;20064;-71
2021/12/25 00:23:32;;;;;;;14.60;7.93;;;;;;;;;;4991550;28;20030;-71
2021/12/25 00:26:03;;;;;;;15.93;9.60;;;;;;;;;;4991439;28;20027;-71
2021/12/25 00:31:09;;;;;;;13.85;8.52;;;;;;;;;;4999611;28;20399;-71
2021/12/25 00:36:06;;;;;;;16.02;8.70;;;;;;;;;;4991911;28;20477;-71
2021/12/25 00:38:31;;;;;;;16.75;9.15;;;;;;;;;;4990297;28;20037;-72
2021/12/25 00:40:58;;;;;;;15.43;8.98;;;;;;;;;;4991563;28;20058;-72
2021/12/25 00:43:23;;;;;;;15.98;9.30;;;;;;;;;;4991371;28;20018;-71
2021/12/25 00:45:49;;;;;;;17.77;9.25;;;;;;;;;;4991115;28;20027;-71
2021/12/25 00:48:14;;;;;;;14.60;8.60;;;;;;;;;;4991224;28;20129;-71
2021/12/25 00:50:39;;;;;;;17.73;10.63;;;;;;;;;;4991282;28;20042;-71
2021/12/25 00:53:05;;;;;;;19.40;10.52;;;;;;;;;;4989642;28;20366;-71
2021/12/25 00:55:30;;;;;;;17.00;10.57;;;;;;;;;;4990964;28;20053;-70
2021/12/25 00:57:55;;;;;;;16.00;10.23;;;;;;;;;;4989655;28;20034;-70
2021/12/25 01:00:21;;;;;;;20.48;11.18;;;;;;;;;;4991061;28;20038;-71
2021/12/25 01:02:47;;;;;;;18.02;10.82;;;;;;;;;;4990850;28;20041;-71
2021/12/25 01:05:14;;;;;;;21.25;12.45;;;;;;;;;;4990768;28;20030;-71
2021/12/25 01:07:40;;;;;;;19.02;11.52;;;;;;;;;;4991245;28;20287;-70
2021/12/25 01:10:09;;;;;;;22.70;11.68;;;;;;;;;;4991004;28;20057;-70
2021/12/25 01:15:24;;;;;;;18.83;10.07;;;;;;;;;;4990922;28;20053;-70
2021/12/25 01:18:29;;;;;;;18.55;11.25;;;;;;;;;;4990536;28;20362;-70
2021/12/25 01:23:54;;;;;;;12.13;7.53;;;;;;;;;;4990413;28;20433;-70
2021/12/25 01:31:44;;;;;;;;;;;;;;;;;;4991210;28;20030;-70
2021/12/25 01:36:49;;;;;;;12.00;7.18;;;;;;;;;;4990144;28;20034;-71
2021/12/25 01:39:29;;;;;;;13.15;7.35;;;;;;;;;;4990265;28;20033;-70
2021/12/25 01:49:54;;;;;;;;;;;;;;;;;;4990438;28;20022;-70
2021/12/25 01:52:26;;;;;;;10.80;6.47;;;;;;;;;;4990260;28;19913;-70
2021/12/25 01:54:52;;;;;;;9.48;6.32;;;;;;;;;;4989864;28;20030;-70
2021/12/25 01:57:17;;;;;;;11.70;6.60;;;;;;;;;;4989712;28;20034;-70
2021/12/25 01:59:42;;;;;;;8.48;5.95;;;;;;;;;;4990163;28;20041;-70
2021/12/25 02:02:08;;;;;;;10.68;6.57;;;;;;;;;;4990221;28;20030;-70
2021/12/25 02:04:33;;;;;;;9.40;6.30;;;;;;;;;;4989500;28;20022;-70
2021/12/25 02:06:58;;;;;;;10.07;5.82;;;;;;;;;;4989888;28;20062;-71
2021/12/25 02:09:24;;;;;;;9.73;5.80;;;;;;;;;;4989782;28;20069;-70
2021/12/25 02:11:50;;;;;;;10.75;5.95;;;;;;;;;;4989692;28;20538;-70
2021/12/25 02:14:15;;;;;;;8.43;5.55;;;;;;;;;;4989521;28;20102;-70
2021/12/25 02:16:53;;;;;;;9.43;6.38;;;;;;;;;;4989906;28;20108;-70
2021/12/25 02:19:33;;;;;;;9.40;6.13;;;;;;;;;;4989812;28;20034;-70
2021/12/25 02:22:01;;;;;;;10.52;6.55;;;;;;;;;;4990007;28;20029;-70
2021/12/25 02:24:26;;;;;;;8.77;5.85;;;;;;;;;;4989266;28;20026;-70
2021/12/25 02:26:51;;;;;;;8.00;5.53;;;;;;;;;;4989833;28;20457;-69
2021/12/25 02:29:17;;;;;;;7.72;5.35;;;;;;;;;;4990000;28;20033;-71
2021/12/25 02:31:42;;;;;;;7.53;5.25;;;;;;;;;;4990015;28;20262;-70
2021/12/25 02:34:07;;;;;;;7.68;5.13;;;;;;;;;;4989544;28;20117;-70
2021/12/25 02:36:33;;;;;;;7.32;5.22;;;;;;;;;;4990015;28;20460;-70
2021/12/25 02:38:58;;;;;;;7.13;5.05;;;;;;;;;;4989658;28;20085;-70
2021/12/25 02:41:24;;;;;;;7.95;5.25;;;;;;;;;;4989946;28;20428;-70
2021/12/25 02:43:49;;;;;;;8.65;5.93;;;;;;;;;;4989622;28;20096;-69
2021/12/25 02:46:15;;;;;;;9.32;6.15;;;;;;;;;;4989544;28;20026;-70
2021/12/25 02:48:42;;;;;;;10.23;5.93;;;;;;;;;;4989650;28;20077;-70
2021/12/25 02:51:10;;;;;;;8.77;5.57;;;;;;;;;;4989937;28;20058;-69
2021/12/25 02:53:38;;;;;;;7.55;4.97;;;;;;;;;;4989536;28;20030;-70
2021/12/25 02:56:05;;;;;;;6.90;4.57;;;;;;;;;;4989725;28;20022;-69
2021/12/25 02:58:30;;;;;;;7.55;5.00;;;;;;;;;;4989737;28;20030;-69
2021/12/25 03:01:03;;;;;;;8.15;5.53;;;;;;;;;;4989817;28;20097;-69
2021/12/25 03:03:29;;;;;;;8.38;5.60;;;;;;;;;;4993046;28;20085;-69
2021/12/25 03:05:54;;;;;;;9.43;5.95;;;;;;;;;;4992962;28;20022;-69
2021/12/25 03:08:20;;;;;;;11.80;6.78;;;;;;;;;;4993065;28;20034;-69
2021/12/25 03:10:46;;;;;;;9.95;5.57;;;;;;;;;;4993449;28;20065;-69
2021/12/25 03:15:47;;;;;;;9.20;5.72;;;;;;;;;;4993242;28;20030;-70
2021/12/25 03:18:23;;;;;;;9.10;5.85;;;;;;;;;;4992162;28;20113;-70
2021/12/25 03:20:50;;;;;;;8.18;5.20;;;;;;;;;;4993263;28;20037;-70
2021/12/25 03:23:19;;;;;;;9.07;6.07;;;;;;;;;;4993289;28;20026;-70
2021/12/25 03:25:46;;;;;;;9.32;5.63;;;;;;;;;;4992643;28;20034;-70
2021/12/25 03:28:13;;;;;;;9.23;5.18;;;;;;;;;;4993367;28;20080;-69
2021/12/25 03:30:39;;;;;;;7.03;4.82;;;;;;;;;;4993283;28;20076;-69
2021/12/25 03:33:11;;;;;;;6.85;4.57;;;;;;;;;;4992799;28;20041;-69
2021/12/25 03:35:36;;;;;;;6.57;4.25;;;;;;;;;;4992303;28;20026;-69
2021/12/25 03:38:04;;;;;;;6.85;4.20;;;;;;;;;;5050503;23;20594;-73
2021/12/25 03:40:29;;;;;;;6.80;4.82;;;;;;;;;;5031938;28;20486;-73
2021/12/25 03:42:55;;;;;;;6.75;4.00;;;;;;;;;;5032130;28;20040;-72
2021/12/25 03:45:20;;;;;;;6.15;4.32;;;;;;;;;;5031632;28;20018;-73
2021/12/25 03:47:47;;;;;;;5.38;4.10;;;;;;;;;;5047988;28;20083;-73
2021/12/25 03:58:24;;;;;;;5.25;3.88;;;;;;;;;;5051890;28;20031;-73
2021/12/25 04:00:50;;;;;;;6.15;3.63;;;;;;;;;;5051930;28;20020;-72
2021/12/25 04:03:25;;;;;;;5.53;3.75;;;;;;;;;;5051803;28;20035;-73
2021/12/25 04:05:50;;;;;;;4.72;3.33;;;;;;;;;;5051147;28;20029;-73
2021/12/25 04:08:19;;;;;;;6.30;4.22;;;;;;;;;;5051608;28;20098;-72
2021/12/25 04:10:50;;;;;;;5.90;4.30;;;;;;;;;;5051276;28;20021;-72
2021/12/25 04:13:18;;;;;;;6.18;4.55;;;;;;;;;;5051274;28;20029;-73
2021/12/25 04:15:44;;;;;;;8.68;5.78;;;;;;;;;;5051369;28;20021;-73
2021/12/25 04:18:09;;;;;;;7.18;5.15;;;;;;;;;;5051350;28;20052;-73
2021/12/25 04:20:36;;;;;;;6.80;4.95;;;;;;;;;;5051092;28;20074;-73
2021/12/25 04:23:06;;;;;;;7.88;5.60;;;;;;;;;;5051249;28;20393;-73
2021/12/25 04:25:34;;;;;;;8.05;5.60;;;;;;;;;;5050861;28;20039;-73
2021/12/25 04:28:10;;;;;;;9.98;6.25;;;;;;;;;;5051230;28;20551;-73
2021/12/25 04:31:01;;;;;;;9.68;6.05;;;;;;;;;;5051066;28;20053;-73
2021/12/25 05:03:22;;;;;;;7.78;4.50;;;;;;;;;;5050741;28;20036;-72
2021/12/25 05:05:48;;;;;;;7.63;5.68;;;;;;;;;;5050048;28;20025;-72
2021/12/25 05:08:13;;;;;;;9.32;5.78;;;;;;;;;;5050544;28;20112;-72
2021/12/25 05:10:39;;;;;;;8.75;5.72;;;;;;;;;;5050206;28;20024;-72
2021/12/25 05:13:04;;;;;;;7.28;5.70;;;;;;;;;;5050369;28;20028;-71
2021/12/25 05:15:29;;;;;;;6.57;4.85;;;;;;;;;;5050002;28;20032;-71
2021/12/25 05:17:54;;;;;;;7.50;5.38;;;;;;;;;;5050451;28;20029;-71
2021/12/25 05:20:21;;;;;;;8.30;5.88;;;;;;;;;;5050183;28;20036;-71
2021/12/25 05:22:47;;;;;;;8.18;5.20;;;;;;;;;;5050393;28;20028;-71
2021/12/25 05:25:12;;;;;;;8.68;5.53;;;;;;;;;;5049258;28;20025;-71
2021/12/25 05:27:37;;;;;;;9.57;5.80;;;;;;;;;;5050002;28;20043;-71
2021/12/25 05:30:04;;;;;;;8.68;5.30;;;;;;;;;;5049981;28;20032;-71
2021/12/25 05:32:29;;;;;;;8.07;5.25;;;;;;;;;;5050041;28;20021;-71
2021/12/25 05:34:54;;;;;;;8.50;5.75;;;;;;;;;;5049678;28;20454;-71
2021/12/25 05:37:20;;;;;;;7.70;5.60;;;;;;;;;;5049966;28;20040;-71
2021/12/25 05:39:50;;;;;;;8.45;5.72;;;;;;;;;;5050434;28;20024;-71
2021/12/25 05:42:17;;;;;;;8.77;5.68;;;;;;;;;;5050136;28;20078;-71
2021/12/25 05:44:43;;;;;;;9.05;5.88;;;;;;;;;;5050105;28;20029;-71
2021/12/25 05:47:09;;;;;;;6.97;5.20;;;;;;;;;;5049842;28;20108;-71
2021/12/25 05:49:34;;;;;;;9.25;5.72;;;;;;;;;;5049887;28;20107;-71
2021/12/25 05:51:59;;;;;;;9.75;5.35;;;;;;;;;;5049580;28;20020;-71
2021/12/25 05:54:25;;;;;;;9.98;6.00;;;;;;;;;;5049531;28;20074;-71
2021/12/25 05:56:50;;;;;;;9.52;5.95;;;;;;;;;;5049441;28;20029;-71
2021/12/25 05:59:15;;;;;;;9.88;5.97;;;;;;;;;;5050133;28;20017;-71
2021/12/25 06:01:40;;;;;;;8.02;5.32;;;;;;;;;;5049440;28;20533;-71
2021/12/25 06:04:06;;;;;;;9.52;5.60;;;;;;;;;;5049342;28;20036;-71
2021/12/25 06:06:31;;;;;;;8.35;5.80;;;;;;;;;;5049557;28;20032;-71
2021/12/25 06:08:58;;;;;;;8.52;5.53;;;;;;;;;;5049430;28;20083;-71
2021/12/25 06:11:31;;;;;;;8.68;5.70;;;;;;;;;;5049472;28;20494;-71
2021/12/25 06:14:07;;;;;;;10.93;6.88;;;;;;;;;;5049312;28;20063;-71
2021/12/25 06:16:32;;;;;;;10.48;5.93;;;;;;;;;;5049303;28;20032;-71
2021/12/25 06:18:58;;;;;;;9.27;5.68;;;;;;;;;;5049539;28;20028;-71
2021/12/25 06:21:23;;;;;;;11.88;6.43;;;;;;;;;;5049273;28;20398;-71
2021/12/25 06:23:48;;;;;;;10.13;6.20;;;;;;;;;;5049354;28;20089;-71
2021/12/25 06:26:14;;;;;;;11.60;6.97;;;;;;;;;;5048783;28;20025;-71
2021/12/25 06:28:39;;;;;;;11.73;8.13;;;;;;;;;;5049706;28;20374;-71
2021/12/25 06:31:04;;;;;;;7.07;5.35;;;;;;;;;;5049363;28;20021;-71
2021/12/25 06:33:30;;;;;;;10.57;6.95;;;;;;;;;;5049246;28;20029;-71
2021/12/25 06:35:55;;;;;;;8.68;6.72;;;;;;;;;;5049989;28;20044;-71
2021/12/25 06:38:20;;;;;;;8.02;5.68;;;;;;;;;;5053312;28;20017;-71
2021/12/25 06:40:46;;;;;;;6.75;5.50;;;;;;;;;;5052002;28;20449;-71
2021/12/25 06:43:11;;;;;;;9.57;6.30;;;;;;;;;;5053524;28;20060;-71
2021/12/25 06:45:36;;;;;;;17.48;13.30;;;;;;;;;;5052873;28;20032;-70
2021/12/25 06:48:02;;;;;;;14.25;10.27;;;;;;;;;;5053318;28;20028;-71
2021/12/25 06:50:27;;;;;;;9.90;6.35;;;;;;;;;;5053334;28;20025;-71
2021/12/25 06:52:53;;;;;;;10.60;6.35;;;;;;;;;;5052922;28;20057;-71
2021/12/25 06:55:18;;;;;;;10.32;6.22;;;;;;;;;;5052988;28;20021;-71
2021/12/25 06:57:51;;;;;;;11.02;6.80;;;;;;;;;;5052793;28;20047;-71
2021/12/25 07:00:17;;;;;;;10.77;6.97;;;;;;;;;;5052956;28;20033;-71
2021/12/25 07:02:42;;;;;;;12.23;7.15;;;;;;;;;;5052730;28;20087;-71
2021/12/25 07:05:08;;;;;;;11.40;7.35;;;;;;;;;;5052936;28;20068;-71
2021/12/25 07:07:33;;;;;;;10.68;7.13;;;;;;;;;;5052564;28;20111;-71
2021/12/25 07:09:59;;;;;;;12.60;7.30;;;;;;;;;;5052875;28;20108;-71
2021/12/25 07:12:25;;;;;;;12.35;8.00;;;;;;;;;;5052606;28;20047;-71
2021/12/25 07:14:50;;;;;;;10.45;6.30;;;;;;;;;;5052608;28;20024;-71
2021/12/25 07:17:15;;;;;;;9.25;5.97;;;;;;;;;;5052375;28;20410;-71
2021/12/25 07:19:41;;;;;;;9.75;6.18;;;;;;;;;;5052573;28;20029;-71
2021/12/25 07:22:06;;;;;;;9.13;6.25;;;;;;;;;;5051081;28;20033;-71
2021/12/25 07:24:32;;;;;;;9.15;6.30;;;;;;;;;;5052343;28;20375;-71
2021/12/25 07:26:58;;;;;;;8.70;5.85;;;;;;;;;;5052226;28;20059;-71
2021/12/25 07:29:23;;;;;;;6.55;4.80;;;;;;;;;;5052500;28;20079;-71
2021/12/25 07:31:49;;;;;;;7.75;5.30;;;;;;;;;;5052406;28;20509;-71
2021/12/25 07:34:15;;;;;;;6.65;5.28;;;;;;;;;;5052368;28;20401;-71
2021/12/25 07:36:40;;;;;;;7.68;5.13;;;;;;;;;;5051942;28;20390;-71
2021/12/25 07:39:05;;;;;;;7.13;4.80;;;;;;;;;;5052339;28;20028;-71
2021/12/25 07:41:31;;;;;;;6.07;4.95;;;;;;;;;;5052224;28;20482;-71
2021/12/25 07:43:56;;;;;;;7.07;5.30;;;;;;;;;;5052233;28;20075;-71
2021/12/25 07:46:22;;;;;;;9.13;6.80;;;;;;;;;;5051939;28;20056;-71
2021/12/25 07:48:48;;;;;;;11.30;8.93;;;;;;;;;;5049663;28;20302;-71
2021/12/25 07:51:13;;;;;;;10.05;8.07;;;;;;;;;;5050424;28;20032;-71
2021/12/25 07:53:41;;;;;;;8.60;6.65;;;;;;;;;;5050497;28;20479;-71
2021/12/25 07:56:06;;;;;;;8.00;6.22;;;;;;;;;;5047710;28;20513;-71
2021/12/25 07:58:31;;;;;;;7.75;5.35;;;;;;;;;;5051606;28;20108;-71
2021/12/25 08:00:57;;;;;;;8.98;5.75;;;;;;;;;;5051558;28;20020;-71
2021/12/25 08:03:22;;;;;;;10.88;6.47;;;;;;;;;;5049284;28;20029;-71
2021/12/25 08:05:48;;;;;;;15.88;9.00;;;;;;;;;;5046508;28;20112;-71
2021/12/25 08:08:14;;;;;;;18.95;12.40;;;;;;;;;;5039366;28;20535;-71
2021/12/25 08:10:40;;;;;;;11.98;8.43;;;;;;;;;;5036673;28;20432;-71
2021/12/25 08:13:06;;;;;;;11.68;7.00;;;;;;;;;;5035192;28;20017;-71
2021/12/25 08:15:32;;;;;;;10.82;7.60;;;;;;;;;;5046714;28;20021;-71
2021/12/25 08:18:00;;;;;;;11.50;8.18;;;;;;;;;;5050868;28;20479;-71
2021/12/25 08:20:26;;;;;;;9.85;7.18;;;;;;;;;;5051147;28;20064;-71
2021/12/25 08:22:52;;;;;;;10.27;7.10;;;;;;;;;;5035273;28;20040;-71
2021/12/25 08:25:18;;;;;;;11.05;7.22;;;;;;;;;;5030991;28;20461;-71
2021/12/25 08:27:45;;;;;;;12.23;8.43;;;;;;;;;;5030603;28;20040;-71
2021/12/25 08:30:16;;;;;;;11.95;7.43;;;;;;;;;;5031222;28;20610;-71
2021/12/25 08:32:42;;;;;;;11.82;7.82;;;;;;;;;;5039387;28;20273;-71
2021/12/25 08:35:10;;;;;;;10.57;7.82;;;;;;;;;;5044995;28;20070;-71
2021/12/25 08:37:35;;;;;;;10.93;7.78;;;;;;;;;;5050616;28;20044;-71
2021/12/25 08:40:04;;;;;;;12.45;7.20;;;;;;;;;;5050856;28;20417;-70
2021/12/25 08:42:30;;;;;;;11.57;7.38;;;;;;;;;;5049416;28;20055;-71
2021/12/25 08:47:25;;;;;;;13.20;8.65;;;;;;;;;;5050424;28;20029;-71
2021/12/25 08:49:51;;;;;;;13.52;8.13;;;;;;;;;;5050667;28;20035;-71
2021/12/25 08:52:19;;;;;;;15.35;10.15;;;;;;;;;;5050604;28;20037;-71
2021/12/25 08:54:48;;;;;;;14.68;9.60;;;;;;;;;;5050767;28;20174;-71
2021/12/25 08:57:14;;;;;;;12.68;7.57;;;;;;;;;;5050374;28;20509;-70
2021/12/25 08:59:39;;;;;;;11.02;7.07;;;;;;;;;;5049481;28;20032;-70
2021/12/25 09:02:10;;;;;;;10.43;6.13;;;;;;;;;;5050275;28;20043;-71
2021/12/25 09:04:37;;;;;;;9.00;5.90;;;;;;;;;;5048710;28;20033;-71
2021/12/25 09:07:04;;;;;;;7.80;5.57;;;;;;;;;;5048852;28;20039;-71
2021/12/25 09:09:29;;;;;;;9.18;5.38;;;;;;;;;;5049957;28;20025;-71
2021/12/25 09:11:55;;;;;;;8.38;5.18;;;;;;;;;;5049796;28;20516;-71
2021/12/25 09:14:20;;;;;;;7.47;4.80;;;;;;;;;;5049147;28;20017;-70
2021/12/25 09:16:46;;;;;;;7.55;5.22;;;;;;;;;;5049754;28;20075;-71
2021/12/25 09:19:11;;;;;;;19.48;12.82;;;;;;;;;;5049513;28;20025;-71
2021/12/25 09:21:43;;;;;;;25.80;15.93;;;;;;;;;;5066916;28;20387;-70
2021/12/25 09:24:08;;;;;;;19.65;12.27;;;;;;;;;;5066260;28;20106;-71
2021/12/25 09:26:33;;;;;;;15.40;10.57;;;;;;;;;;5066498;28;20031;-71
2021/12/25 09:28:59;;;;;;;9.70;7.22;;;;;;;;;;5066541;28;20031;-69
2021/12/25 09:31:25;;;;;;;10.23;6.82;;;;;;;;;;5066024;28;20037;-71
2021/12/25 09:33:52;;;;;;;7.55;4.88;;;;;;;;;;5087922;22;20283;-74
2021/12/25 09:36:18;;;;;;;17.15;11.48;;;;;;;;;;5047075;28;20555;-76
2021/12/25 09:38:44;;;;;;;29.00;16.83;;;;;;;;;;5047149;28;20029;-76
2021/12/25 09:41:10;;;;;;;15.70;11.02;;;;;;;;;;5047849;28;20031;-76
2021/12/25 09:43:35;;;;;;;13.90;8.85;;;;;;;;;;5048077;28;20116;-74
2021/12/25 09:46:01;;;;;;;15.88;10.43;;;;;;;;;;5047603;28;20025;-76
2021/12/25 09:48:26;;;;;;;12.70;8.27;;;;;;;;;;5049034;28;20029;-76
2021/12/25 09:50:53;;;;;;;14.10;9.95;;;;;;;;;;5047534;28;20021;-76
2021/12/25 09:53:19;;;;;;;14.40;10.35;;;;;;;;;;5047464;28;20382;-76
2021/12/25 09:55:45;;;;;;;14.95;9.70;;;;;;;;;;5047690;28;20431;-76
2021/12/25 09:58:10;;;;;;;15.18;7.60;;;;;;;;;;5047829;28;20112;-76
2021/12/25 10:00:40;;;;;;;10.23;7.00;;;;;;;;;;5047783;28;20110;-77
2021/12/25 10:03:06;;;;;;;11.30;7.25;;;;;;;;;;5045949;28;20064;-76
2021/12/25 10:05:34;;;;;;;11.20;6.82;;;;;;;;;;5047248;28;20060;-75
2021/12/25 10:08:14;;;;;;;21.25;14.57;;;;;;;;;;5046489;28;20099;-76
2021/12/25 10:10:44;;;;;;;14.75;7.82;;;;;;;;;;5047534;28;20056;-76
2021/12/25 10:13:26;;;;;;;18.08;13.48;;;;;;;;;;5047733;28;20417;-75
2021/12/25 10:15:54;;;;;;;12.27;8.93;;;;;;;;;;5048300;28;20036;-78
2021/12/25 10:18:29;;;;;;;12.52;9.05;;;;;;;;;;5048157;28;20064;-76
2021/12/25 10:20:54;;;;;;;10.35;7.43;;;;;;;;;;5047548;28;20104;-76
2021/12/25 10:23:27;;;;;;;9.48;6.32;;;;;;;;;;5046849;28;20636;-76
2021/12/25 10:25:58;;;;;;;6.63;4.93;;;;;;;;;;5046622;28;20021;-76
2021/12/25 10:28:30;;;;;;;6.80;4.97;;;;;;;;;;5047126;28;20032;-76
2021/12/25 10:31:02;;;;;;;7.00;6.00;;;;;;;;;;5045983;28;20021;-76
2021/12/25 10:33:38;;;;;;;7.25;5.53;;;;;;;;;;5032112;28;20057;-74
2021/12/25 10:36:22;;;;;;;6.57;4.35;;;;;;;;;;5031694;28;20586;-75
2021/12/25 10:39:06;;;;;;;7.38;4.32;;;;;;;;;;5032026;28;20497;-74
2021/12/25 10:41:35;;;;;;;4.10;2.72;;;;;;;;;;5032192;28;20486;-75
2021/12/25 10:44:15;;;;;;;3.33;2.70;;;;;;;;;;5030536;28;20112;-74
2021/12/25 10:46:58;;;;;;;4.25;3.50;;;;;;;;;;5032556;28;20483;-74
2021/12/25 10:49:27;;;;;;;4.88;3.40;;;;;;;;;;5031647;28;20033;-76
2021/12/25 10:51:53;;;;;;;4.47;3.42;;;;;;;;;;5033191;28;20021;-76
2021/12/25 10:54:19;;;;;;;4.80;3.78;;;;;;;;;;5030663;28;20075;-75
2021/12/25 10:56:48;;;;;;;4.60;3.65;;;;;;;;;;5031863;28;20029;-75
2021/12/25 10:59:17;;;;;;;4.82;3.42;;;;;;;;;;5029997;28;20498;-75
2021/12/25 11:01:48;;;;;;;5.47;4.15;;;;;;;;;;5031896;28;20152;-73
2021/12/25 11:04:39;;;;;;;5.00;3.20;;;;;;;;;;5031924;28;20108;-75
2021/12/25 11:07:13;;;;;;;3.08;2.78;;;;;;;;;;5032815;28;20548;-76
2021/12/25 11:09:38;;;;;;;3.20;2.55;;;;;;;;;;5030627;28;20021;-76
2021/12/25 11:12:18;;;;;;;4.50;3.00;;;;;;;;;;5032414;28;20025;-76
2021/12/25 11:14:44;;;;;;;3.67;2.97;;;;;;;;;;5030606;28;20033;-76
2021/12/25 11:17:23;;;;;;;4.25;3.10;;;;;;;;;;5032294;28;20037;-76
2021/12/25 11:19:59;;;;;;;4.03;3.00;;;;;;;;;;5031008;28;20021;-71
2021/12/25 11:22:26;;;;;;;4.60;3.38;;;;;;;;;;5031346;28;20025;-72
2021/12/25 11:24:52;;;;;;;6.35;3.90;;;;;;;;;;5030810;28;20033;-71
2021/12/25 11:27:18;;;;;;;7.05;3.28;;;;;;;;;;5031218;28;20025;-71
2021/12/25 11:29:44;;;;;;;5.38;3.22;;;;;;;;;;5031118;28;20032;-72
2021/12/25 11:32:11;;;;;;;5.55;3.08;;;;;;;;;;5031219;28;20040;-71
2021/12/25 11:34:37;;;;;;;5.20;3.08;;;;;;;;;;5030633;28;20029;-71
2021/12/25 11:37:03;;;;;;;5.55;3.47;;;;;;;;;;5030906;28;20044;-71
2021/12/25 11:39:29;;;;;;;6.40;4.20;;;;;;;;;;5030775;28;20514;-71
2021/12/25 11:42:01;;;;;;;4.65;2.92;;;;;;;;;;5031014;28;20029;-71
2021/12/25 11:44:39;;;;;;;5.07;3.30;;;;;;;;;;5029595;28;20017;-73
2021/12/25 11:47:06;;;;;;;5.28;2.80;;;;;;;;;;5030464;28;20029;-71
2021/12/25 11:49:32;;;;;;;4.15;2.40;;;;;;;;;;5030929;28;20028;-71
2021/12/25 11:52:17;;;;;;;6.50;3.50;;;;;;;;;;5030464;28;20029;-72
2021/12/25 11:58:00;;;;;;;6.78;2.67;;;;;;;;;;5030762;28;20040;-71
2021/12/25 12:00:39;;;;;;;2.67;1.75;;;;;;;;;;5030299;28;20029;-72
2021/12/25 12:03:05;;;;;;;3.80;2.60;;;;;;;;;;5030744;28;20024;-71
2021/12/25 12:05:33;;;;;;;2.92;1.65;;;;;;;;;;5030365;28;20153;-71
2021/12/25 12:08:12;;;;;;;4.43;2.58;;;;;;;;;;5030777;28;20467;-71
2021/12/25 12:10:43;;;;;;;4.05;2.45;;;;;;;;;;5030392;28;20056;-72
2021/12/25 12:13:18;;;;;;;5.47;2.50;;;;;;;;;;5030433;28;20080;-71
2021/12/25 12:15:46;;;;;;;6.57;3.25;;;;;;;;;;5030038;28;20479;-70
2021/12/25 12:18:23;;;;;;;6.90;3.58;;;;;;;;;;5030349;28;20029;-72
2021/12/25 12:20:49;;;;;;;2.67;1.77;;;;;;;;;;5028743;28;20021;-71
2021/12/25 12:26:44;;;;;;;2.28;1.23;;;;;;;;;;5030009;28;20075;-72
2021/12/25 12:29:10;;;;;;;1.60;1.05;;;;;;;;;;5030237;28;20029;-70
2021/12/25 12:31:41;;;;;;;2.13;1.30;;;;;;;;;;5029821;28;20055;-71
2021/12/25 12:34:32;;;;;;;1.27;1.02;;;;;;;;;;5029746;28;20061;-71
2021/12/25 12:37:16;;;;;;;3.90;2.22;;;;;;;;;;5030359;28;20037;-71
2021/12/25 12:39:55;;;;;;;8.95;5.13;;;;;;;;;;5028847;28;20090;-71
2021/12/25 12:42:49;;;;;;;10.48;6.35;;;;;;;;;;5029964;28;20025;-71
2021/12/25 12:45:16;;;;;;;2.40;1.70;;;;;;;;;;5028727;28;20081;-72
2021/12/25 12:48:15;;;;;;;1.60;1.40;;;;;;;;;;5029019;28;20113;-72
2021/12/25 12:50:45;;;;;;;2.00;1.80;;;;;;;;;;5029446;28;20025;-71
2021/12/25 12:53:11;;;;;;;1.90;1.02;;;;;;;;;;5026073;28;20061;-71
2021/12/25 12:55:42;;;;;;;1.60;1.30;;;;;;;;;;5030295;28;20092;-71
2021/12/25 12:58:12;;;;;;;2.00;1.10;;;;;;;;;;5029546;28;20083;-72
2021/12/25 13:00:40;;;;;;;1.30;1.20;;;;;;;;;;5028303;28;20487;-72
2021/12/25 13:03:05;;;;;;;1.38;1.00;;;;;;;;;;5038665;28;20187;-71
2021/12/25 13:05:42;;;;;;;0.93;0.82;;;;;;;;;;5028188;28;20029;-71
2021/12/25 13:08:20;;;;;;;1.00;0.90;;;;;;;;;;5029577;28;20025;-72
2021/12/25 13:10:51;;;;;;;0.70;0.65;;;;;;;;;;5029505;28;20683;-70
2021/12/25 13:13:28;;;;;;;0.85;0.85;;;;;;;;;;5029811;28;20083;-71
2021/12/25 13:16:04;;;;;;;1.05;0.98;;;;;;;;;;5029134;28;20036;-71
2021/12/25 13:18:38;;;;;;;1.40;1.27;;;;;;;;;;5029433;28;20406;-71
2021/12/25 13:21:11;;;;;;;1.73;1.63;;;;;;;;;;5029340;28;20498;-71
2021/12/25 13:23:43;;;;;;;2.63;1.10;;;;;;;;;;5029610;28;20506;-72
2021/12/25 13:26:09;;;;;;;1.35;1.10;;;;;;;;;;5029224;28;20367;-70
2021/12/25 13:28:39;;;;;;;1.98;1.63;;;;;;;;;;5029416;28;20151;-71
2021/12/25 13:31:08;;;;;;;3.85;2.30;;;;;;;;;;5029133;28;20102;-71
2021/12/25 13:33:42;;;;;;;2.30;1.77;;;;;;;;;;5029387;28;20032;-70
2021/12/25 13:36:10;;;;;;;2.75;1.63;;;;;;;;;;5028845;28;20032;-71
2021/12/25 13:38:46;;;;;;;3.15;1.90;;;;;;;;;;5029134;28;20457;-71
2021/12/25 13:41:11;;;;;;;2.25;1.55;;;;;;;;;;5028840;28;20029;-71
2021/12/25 13:43:37;;;;;;;2.33;1.75;;;;;;;;;;5028991;28;20055;-70
2021/12/25 13:46:02;;;;;;;2.33;1.60;;;;;;;;;;5028762;28;20243;-71
2021/12/25 13:48:36;;;;;;;3.58;2.30;;;;;;;;;;5029154;28;20026;-71
2021/12/25 13:51:02;;;;;;;2.35;2.00;;;;;;;;;;5028875;28;20028;-72
2021/12/25 13:53:29;;;;;;;3.70;2.83;;;;;;;;;;5029113;28;20105;-72
2021/12/25 13:55:55;;;;;;;3.47;3.08;;;;;;;;;;5028960;28;20395;-70
2021/12/25 13:58:20;;;;;;;6.10;3.75;;;;;;;;;;5029097;28;20029;-71
2021/12/25 14:00:50;;;;;;;4.78;3.45;;;;;;;;;;5029024;28;20038;-72
2021/12/25 14:03:19;;;;;;;6.53;3.42;;;;;;;;;;5029020;28;20384;-71
2021/12/25 14:05:48;;;;;;;6.47;3.00;;;;;;;;;;5028805;28;20437;-71
2021/12/25 14:08:13;;;;;;;6.15;4.13;;;;;;;;;;5031820;28;20356;-71
2021/12/25 14:10:42;;;;;;;3.85;2.88;;;;;;;;;;5032552;28;20040;-71
2021/12/25 14:13:21;;;;;;;7.93;3.60;;;;;;;;;;5032357;28;20040;-72
2021/12/25 14:15:51;;;;;;;4.93;2.90;;;;;;;;;;5032394;28;20056;-71
2021/12/25 14:18:19;;;;;;;7.38;3.83;;;;;;;;;;5032263;28;20018;-71
2021/12/25 14:20:45;;;;;;;5.25;3.22;;;;;;;;;;5032431;28;20100;-71
2021/12/25 14:23:17;;;;;;;2.72;2.15;;;;;;;;;;5031917;28;20433;-71
2021/12/25 14:25:59;;;;;;;1.92;1.63;;;;;;;;;;5032080;28;20021;-71
2021/12/25 14:28:34;;;;;;;2.55;2.03;;;;;;;;;;5032103;28;20021;-72
2021/12/25 14:31:06;;;;;;;2.80;1.50;;;;;;;;;;5032180;28;20057;-72
2021/12/25 14:33:34;;;;;;;2.92;2.03;;;;;;;;;;5031900;28;20029;-72
2021/12/25 14:36:01;;;;;;;4.10;1.80;;;;;;;;;;5031877;28;20033;-71
2021/12/25 14:38:39;;;;;;;2.03;1.60;;;;;;;;;;5031953;28;20022;-72
2021/12/25 14:41:06;;;;;;;1.50;1.40;;;;;;;;;;5031583;28;20025;-72
2021/12/25 14:43:32;;;;;;;2.75;2.03;;;;;;;;;;5032232;28;20040;-70
2021/12/25 14:46:01;;;;;;;2.50;2.00;;;;;;;;;;5031186;28;20025;-73
2021/12/25 14:48:35;;;;;;;2.33;2.00;;;;;;;;;;5031667;28;20025;-71
2021/12/25 14:51:22;;;;;;;5.85;4.50;;;;;;;;;;5032616;28;20101;-72
2021/12/25 14:53:58;;;;;;;3.75;2.58;;;;;;;;;;5012519;28;20033;-71
2021/12/25 14:56:28;;;;;;;6.55;3.75;;;;;;;;;;5012740;28;20448;-72
2021/12/25 14:58:59;;;;;;;7.90;3.80;;;;;;;;;;5012534;28;20385;-72
2021/12/25 15:01:29;;;;;;;3.65;2.20;;;;;;;;;;5012486;28;20113;-71
2021/12/25 15:04:14;;;;;;;3.90;3.00;;;;;;;;;;5011842;28;20064;-72
2021/12/25 15:06:56;;;;;;;3.10;2.78;;;;;;;;;;5011742;28;20514;-72
2021/12/25 15:09:40;;;;;;;2.63;2.43;;;;;;;;;;5012086;28;20030;-72
2021/12/25 15:12:07;;;;;;;2.67;1.90;;;;;;;;;;5012047;28;20399;-72
2021/12/25 15:14:35;;;;;;;2.03;1.75;;;;;;;;;;5011605;28;20395;-72
2021/12/25 15:17:11;;;;;;;2.22;1.90;;;;;;;;;;5011717;28;20376;-72
2021/12/25 15:19:48;;;;;;;1.70;1.60;;;;;;;;;;5011586;28;20042;-72
2021/12/25 15:22:15;;;;;;;2.40;2.13;;;;;;;;;;5011681;28;20033;-72
2021/12/25 15:24:53;;;;;;;2.70;1.80;;;;;;;;;;5011462;28;20036;-72
2021/12/25 15:27:26;;;;;;;2.28;2.08;;;;;;;;;;5011547;28;20133;-72
2021/12/25 15:29:52;;;;;;;;;;;;;;;;;;5011943;28;20032;-72
2021/12/25 15:32:18;;;;;;;4.35;3.10;;;;;;;;;;5011298;28;20000;-72
2021/12/25 15:34:55;;;;;;;5.75;4.25;;;;;;;;;;5040632;23;20156;-71
2021/12/25 15:37:29;;;;;;;4.05;3.00;;;;;;;;;;5050908;28;20025;-72
2021/12/25 15:39:56;;;;;;;10.25;6.28;;;;;;;;;;5050938;28;20036;-72
2021/12/25 15:42:23;;;;;;;4.55;3.00;;;;;;;;;;5050836;28;20054;-72
2021/12/25 15:44:49;;;;;;;3.38;2.42;;;;;;;;;;5050751;28;20029;-71
2021/12/25 15:47:16;;;;;;;3.03;2.50;;;;;;;;;;5051311;28;20021;-72
2021/12/25 15:49:41;;;;;;;3.10;2.33;;;;;;;;;;5050925;28;20029;-72
2021/12/25 15:52:07;;;;;;;2.95;2.50;;;;;;;;;;5050659;28;20033;-71
2021/12/25 15:54:38;;;;;;;1.90;1.80;;;;;;;;;;5050886;28;20454;-73
2021/12/25 15:57:04;;;;;;;2.65;1.98;;;;;;;;;;5050917;28;20056;-69
2021/12/25 15:59:31;;;;;;;2.55;2.05;;;;;;;;;;5050713;28;20032;-71
2021/12/25 16:01:59;;;;;;;4.13;2.50;;;;;;;;;;5050585;28;20040;-69
2021/12/25 16:04:27;;;;;;;3.20;2.45;;;;;;;;;;5050076;28;20025;-73